Time;durP1;ratioP1;P1;durP2;ratioP2;P2;SDS_P1;SDS_P2;PMS_P1;PMS_P2;Temp;Humidity;BMP_temperature;BMP_pressure;BME280_temperature;BME280_humidity;BME280_pressure;Samples;Min_cycle;Max_cycle;Signal;HPM_P1;HPM_P2
2023/10/15 00:00:21;;;;;;;1.13;1.02;;;10.50;99.90;;;10.47;100.00;101249.34;5197066;28;20050;-52
2023/10/15 00:02:55;;;;;;;1.95;1.10;;;10.40;99.90;;;10.49;100.00;101247.69;5184217;28;20600;-52
2023/10/15 00:05:27;;;;;;;2.83;1.42;;;10.50;99.90;;;10.44;100.00;101242.31;5188437;28;20425;-53
2023/10/15 00:08:02;;;;;;;2.75;1.20;;;10.40;99.90;;;10.45;100.00;101251.00;5196998;28;20057;-51
2023/10/15 00:10:38;;;;;;;3.05;1.17;;;10.40;99.90;;;10.44;100.00;101249.25;5186547;28;20053;-52
2023/10/15 00:13:10;;;;;;;3.65;1.13;;;10.40;99.90;;;10.43;100.00;101250.03;5198326;28;20056;-51
2023/10/15 00:15:43;;;;;;;2.22;0.98;;;10.40;99.90;;;10.43;100.00;101253.56;5199316;28;20046;-50
2023/10/15 00:18:19;;;;;;;3.95;1.65;;;10.40;99.90;;;10.40;100.00;101245.59;5200651;28;20468;-52
2023/10/15 00:20:56;;;;;;;4.22;1.20;;;10.40;99.90;;;10.34;100.00;101247.94;5194561;28;20077;-54
2023/10/15 00:23:32;;;;;;;1.90;1.02;;;10.40;99.90;;;10.29;100.00;101245.13;5192380;28;20133;-51
2023/10/15 00:26:04;;;;;;;3.72;0.90;;;10.30;99.90;;;10.24;100.00;101249.28;5194288;28;20385;-50
2023/10/15 00:28:37;;;;;;;1.73;1.00;;;10.30;99.90;;;10.21;100.00;101250.81;5198179;28;20077;-51
2023/10/15 00:31:13;;;;;;;2.78;1.30;;;10.20;99.90;;;10.17;100.00;101243.66;5194841;28;20049;-51
2023/10/15 00:33:46;;;;;;;2.78;1.33;;;10.20;99.90;;;10.14;100.00;101248.75;5199432;28;20072;-54
2023/10/15 00:36:23;;;;;;;2.10;1.00;;;10.10;99.90;;;10.11;100.00;101243.44;5193132;28;20108;-50
2023/10/15 00:38:56;;;;;;;1.77;1.00;;;10.10;99.90;;;10.08;100.00;101249.38;5199050;28;20145;-52
2023/10/15 00:41:29;;;;;;;4.32;1.52;;;10.10;99.90;;;10.06;100.00;101241.50;5199795;28;20042;-50
2023/10/15 00:44:01;;;;;;;2.40;1.17;;;10.10;99.90;;;10.03;100.00;101236.16;5190190;28;20050;-50
2023/10/15 00:46:37;;;;;;;2.45;1.20;;;10.00;99.90;;;10.01;100.00;101234.31;5208955;28;20053;-54
2023/10/15 00:49:13;;;;;;;2.55;1.08;;;10.00;99.90;;;9.97;100.00;101237.59;5197904;28;20456;-50
2023/10/15 00:51:47;;;;;;;2.80;1.38;;;10.00;99.90;;;9.91;100.00;101238.25;5198746;28;20073;-51
2023/10/15 00:54:21;;;;;;;2.63;0.90;;;9.90;99.90;;;9.85;100.00;101235.34;5196164;28;20404;-51
2023/10/15 00:56:54;;;;;;;3.95;1.38;;;9.90;99.90;;;9.79;100.00;101245.50;5195678;28;20080;-50
2023/10/15 00:59:43;;;;;;;2.45;1.30;;;9.80;99.90;;;9.72;100.00;101238.22;5200798;28;20050;-52
2023/10/15 01:02:22;;;;;;;2.38;1.10;;;9.80;99.90;;;9.64;100.00;101245.66;5194173;28;20049;-52
2023/10/15 01:04:58;;;;;;;3.65;1.20;;;9.70;99.90;;;9.57;100.00;101238.41;5211502;28;20081;-51
2023/10/15 01:07:42;;;;;;;1.67;1.10;;;9.60;99.90;;;9.52;100.00;101233.00;5200458;28;20050;-51
2023/10/15 01:10:31;;;;;;;2.30;1.10;;;9.60;99.90;;;9.53;100.00;101233.91;5192368;28;20052;-51
2023/10/15 01:13:12;;;;;;;2.03;1.00;;;9.60;99.90;;;9.54;100.00;101232.19;5197704;28;20037;-52
2023/10/15 01:15:51;;;;;;;1.95;1.10;;;9.50;99.90;;;9.58;100.00;101234.09;5217535;28;20544;-56
2023/10/15 01:18:23;;;;;;;2.38;1.13;;;9.60;99.90;;;9.61;100.00;101229.03;5201494;28;20400;-52
2023/10/15 01:21:01;;;;;;;2.85;1.25;;;9.60;99.90;;;9.65;100.00;101236.16;5190929;28;20049;-51
2023/10/15 01:23:44;;;;;;;1.00;0.90;;;9.60;99.90;;;9.67;100.00;101234.53;5200890;28;20046;-52
2023/10/15 01:26:23;;;;;;;1.00;0.90;;;9.60;99.90;;;9.68;100.00;101231.97;5200620;28;20114;-52
2023/10/15 01:28:55;;;;;;;1.40;1.23;;;9.70;99.90;;;9.70;100.00;101229.44;5194442;28;20480;-52
2023/10/15 01:31:28;;;;;;;0.77;0.77;;;9.70;99.90;;;9.72;100.00;101227.81;5201139;28;20041;-54
2023/10/15 01:34:00;;;;;;;3.38;1.30;;;9.70;99.90;;;9.75;100.00;101238.34;5202587;28;20049;-54
2023/10/15 01:36:38;;;;;;;1.95;0.90;;;9.80;99.90;;;9.78;100.00;101233.31;5201163;28;20412;-50
2023/10/15 01:39:12;;;;;;;3.58;1.52;;;9.80;99.90;;;9.77;100.00;101227.19;5199589;28;20115;-50
2023/10/15 01:41:50;;;;;;;3.60;1.27;;;9.80;99.90;;;9.77;100.00;101224.56;5201225;28;20045;-52
2023/10/15 01:44:24;;;;;;;3.10;1.30;;;9.80;99.90;;;9.78;100.00;101218.56;5203001;28;20068;-52
2023/10/15 01:47:07;;;;;;;1.40;1.10;;;9.80;99.90;;;9.78;100.00;101217.69;5192763;28;20283;-50
2023/10/15 01:49:41;;;;;;;1.17;1.08;;;9.80;99.90;;;9.79;100.00;101219.47;5212674;28;20132;-51
2023/10/15 01:52:23;;;;;;;2.85;1.42;;;9.80;99.90;;;9.79;100.00;101211.66;5191232;28;20417;-51
2023/10/15 01:54:56;;;;;;;2.15;1.10;;;9.80;99.90;;;9.78;100.00;101213.38;5208795;28;20053;-52
2023/10/15 01:57:29;;;;;;;1.63;1.02;;;9.80;99.90;;;9.79;100.00;101219.47;5202293;28;20095;-53
2023/10/15 02:00:12;;;;;;;1.15;0.98;;;9.80;99.90;;;9.77;100.00;101206.34;5198438;28;20064;-51
2023/10/15 02:02:50;;;;;;;1.90;1.15;;;9.80;99.90;;;9.77;100.00;101213.28;5201816;28;20050;-52
2023/10/15 02:05:29;;;;;;;1.92;1.65;;;9.80;99.90;;;9.77;100.00;101210.66;5199289;28;20552;-52
2023/10/15 02:08:02;;;;;;;3.47;1.10;;;9.80;99.90;;;9.77;100.00;101206.34;5208555;28;20050;-54
2023/10/15 02:10:35;;;;;;;1.58;1.10;;;9.80;99.90;;;9.79;100.00;101219.47;5211628;28;20069;-53
2023/10/15 02:13:11;;;;;;;1.67;0.80;;;9.80;99.90;;;9.78;100.00;101213.38;5196867;28;20467;-55
2023/10/15 02:15:44;;;;;;;1.15;1.05;;;9.80;99.90;;;9.79;100.00;101214.25;5196653;28;20611;-51
2023/10/15 02:18:18;;;;;;;1.02;0.90;;;9.80;99.90;;;9.78;100.00;101218.56;5198363;28;20050;-54
2023/10/15 02:21:01;;;;;;;2.58;1.08;;;9.80;99.90;;;9.77;100.00;101216.75;5195543;28;20049;-51
2023/10/15 02:23:34;;;;;;;1.90;0.95;;;9.80;99.90;;;9.78;100.00;101215.06;5200293;28;20057;-52
2023/10/15 02:26:06;;;;;;;1.83;1.00;;;9.80;99.90;;;9.79;100.00;101222.06;5192379;28;20045;-53
2023/10/15 02:28:44;;;;;;;0.80;0.80;;;9.80;99.90;;;9.79;100.00;101222.06;5197225;28;20524;-51
2023/10/15 02:31:21;;;;;;;1.98;0.80;;;9.80;99.90;;;9.80;100.00;101221.22;5202232;28;20496;-53
2023/10/15 02:33:55;;;;;;;2.17;1.00;;;9.80;99.90;;;9.80;100.00;101221.22;5186701;28;20045;-51
2023/10/15 02:36:30;;;;;;;1.27;0.85;;;9.80;99.90;;;9.81;100.00;101217.81;5197523;28;20128;-54
2023/10/15 02:39:03;;;;;;;2.63;1.10;;;9.80;99.90;;;9.83;100.00;101213.53;5199340;28;20509;-50
2023/10/15 02:41:40;;;;;;;1.88;0.90;;;9.80;99.90;;;9.83;100.00;101216.16;5204366;28;20053;-50
2023/10/15 02:44:16;;;;;;;2.35;1.13;;;9.80;99.90;;;9.83;100.00;101210.94;5202196;28;20053;-50
2023/10/15 02:46:50;;;;;;;2.30;1.25;;;9.80;99.90;;;9.83;100.00;101205.72;5198731;28;20041;-55
2023/10/15 02:49:25;;;;;;;4.68;1.10;;;9.80;99.90;;;9.83;100.00;101215.25;5203197;28;20140;-50
2023/10/15 02:51:59;;;;;;;3.50;0.90;;;9.80;99.90;;;9.81;100.00;101211.72;5192934;28;20112;-52
2023/10/15 02:54:37;;;;;;;1.98;1.10;;;9.80;99.90;;;9.79;100.00;101204.72;5193600;28;20060;-51
2023/10/15 02:57:15;;;;;;;1.50;0.77;;;9.80;99.90;;;9.74;100.00;101201.03;5211686;28;20412;-52
2023/10/15 02:59:52;;;;;;;3.05;1.00;;;9.80;99.90;;;9.68;100.00;101203.34;5201911;28;20072;-54
2023/10/15 03:02:25;;;;;;;2.72;1.10;;;9.70;99.90;;;9.60;100.00;101201.22;5201442;28;20103;-51
2023/10/15 03:05:06;;;;;;;2.42;1.20;;;9.70;99.90;;;9.52;100.00;101204.38;5197765;28;20049;-54
2023/10/15 03:07:42;;;;;;;1.20;0.82;;;9.50;99.90;;;9.48;100.00;101206.75;5214521;28;20050;-51
2023/10/15 03:10:21;;;;;;;1.77;1.02;;;9.50;99.90;;;9.46;100.00;101204.09;5197783;28;20141;-51
2023/10/15 03:13:01;;;;;;;1.95;0.98;;;9.50;99.90;;;9.45;100.00;101204.94;5200930;28;20045;-51
2023/10/15 03:15:46;;;;;;;1.90;0.90;;;9.50;99.90;;;9.46;100.00;101206.72;5198059;28;20432;-54
2023/10/15 03:18:23;;;;;;;1.88;0.90;;;9.50;99.90;;;9.49;100.00;101209.44;5194712;28;20057;-52
2023/10/15 03:21:09;;;;;;;1.98;1.00;;;9.50;99.90;;;9.51;100.00;101207.78;5186662;28;20470;-52
2023/10/15 03:23:43;;;;;;;2.53;1.00;;;9.50;99.90;;;9.53;100.00;101202.66;5192484;28;20045;-50
2023/10/15 03:26:18;;;;;;;2.03;0.80;;;9.50;99.90;;;9.53;100.00;101194.84;5207631;28;20476;-50
2023/10/15 03:28:58;;;;;;;4.03;1.00;;;9.60;99.90;;;9.51;100.00;101197.38;5197001;28;20056;-50
2023/10/15 03:31:32;;;;;;;2.13;1.00;;;9.50;99.90;;;9.51;100.00;101199.97;5205760;28;20046;-52
2023/10/15 03:34:17;;;;;;;2.90;1.00;;;9.50;99.90;;;9.49;100.00;101211.16;5188720;28;20067;-54
2023/10/15 03:36:51;;;;;;;3.05;1.10;;;9.50;99.90;;;9.44;100.00;101221.34;5187105;28;20077;-51
2023/10/15 03:39:44;;;;;;;3.53;1.05;;;9.50;99.90;;;9.40;100.00;101219.44;5193627;28;20041;-51
2023/10/15 03:42:18;;;;;;;2.08;0.90;;;9.50;99.90;;;9.35;100.00;101226.13;5183710;28;20046;-50
2023/10/15 03:44:54;;;;;;;2.05;1.02;;;9.40;99.90;;;9.32;100.00;101227.69;5215181;28;20096;-50
2023/10/15 03:47:27;;;;;;;2.03;1.10;;;9.40;99.90;;;9.28;100.00;101218.84;5203916;28;20046;-50
2023/10/15 03:50:06;;;;;;;1.33;0.88;;;9.30;99.90;;;9.29;100.00;101223.25;5200677;28;20052;-51
2023/10/15 03:52:44;;;;;;;1.88;1.02;;;9.30;99.90;;;9.32;100.00;101219.88;5199666;28;20112;-51
2023/10/15 03:55:17;;;;;;;3.40;1.00;;;9.30;99.90;;;9.36;100.00;101212.28;5200393;28;20529;-51
2023/10/15 03:57:51;;;;;;;1.60;0.90;;;9.40;99.90;;;9.41;100.00;101216.00;5190549;28;20535;-52
2023/10/15 04:00:35;;;;;;;1.95;1.15;;;9.40;99.90;;;9.47;100.00;101221.50;5196277;28;20074;-52
2023/10/15 04:03:18;;;;;;;1.80;0.70;;;9.50;99.90;;;9.51;100.00;101218.19;5190400;28;20468;-52
2023/10/15 04:06:00;;;;;;;2.95;1.08;;;9.60;99.90;;;9.56;100.00;101220.13;5199819;28;20053;-49
2023/10/15 04:08:33;;;;;;;2.63;1.20;;;9.60;99.90;;;9.59;100.00;101222.88;5198393;28;20054;-52
2023/10/15 04:11:06;;;;;;;0.73;0.70;;;9.60;99.90;;;9.62;100.00;101225.59;5185314;28;20045;-53
2023/10/15 04:13:39;;;;;;;2.38;1.02;;;9.60;99.90;;;9.64;100.00;101221.34;5211203;28;20034;-51
2023/10/15 04:16:12;;;;;;;1.67;0.93;;;9.60;99.90;;;9.63;100.00;101224.78;5211032;28;20053;-50
2023/10/15 04:18:46;;;;;;;2.13;0.90;;;9.60;99.90;;;9.65;100.00;101223.13;5203242;28;20065;-51
2023/10/15 04:21:20;;;;;;;1.13;0.90;;;9.70;99.90;;;9.65;100.00;101220.53;5199019;28;20535;-51
2023/10/15 04:23:56;;;;;;;2.50;0.95;;;9.70;99.90;;;9.66;100.00;101220.63;5200007;28;20432;-55
2023/10/15 04:26:30;;;;;;;1.92;1.02;;;9.70;99.90;;;9.68;100.00;101220.69;5206256;28;20105;-51
2023/10/15 04:29:15;;;;;;;4.40;1.55;;;9.70;99.90;;;9.68;100.00;101241.50;5204479;28;20073;-52
2023/10/15 04:32:00;;;;;;;4.55;1.20;;;9.70;99.90;;;9.68;100.00;101241.50;5203833;28;20053;-51
2023/10/15 04:34:36;;;;;;;1.98;1.00;;;9.70;99.90;;;9.68;100.00;101244.13;5207294;28;20045;-53
2023/10/15 04:37:10;;;;;;;2.90;0.90;;;9.70;99.90;;;9.67;100.00;101243.22;5199306;28;20059;-53
2023/10/15 04:39:51;;;;;;;1.58;1.10;;;9.70;99.90;;;9.69;100.00;101240.69;5204296;28;20542;-51
2023/10/15 04:42:29;;;;;;;2.20;1.20;;;9.70;99.90;;;9.68;100.00;101241.50;5212606;28;20045;-51
2023/10/15 04:45:01;;;;;;;3.03;1.25;;;9.70;99.90;;;9.67;100.00;101251.03;5203227;28;20077;-55
2023/10/15 04:47:38;;;;;;;3.35;1.20;;;9.70;99.90;;;9.69;100.00;101253.69;5209362;28;20042;-51
2023/10/15 04:50:15;;;;;;;1.77;0.98;;;9.70;99.90;;;9.70;100.00;101251.16;5197123;28;20048;-51
2023/10/15 04:52:48;;;;;;;2.83;1.33;;;9.70;99.90;;;9.69;100.00;101253.69;5219791;28;20096;-53
2023/10/15 04:55:21;;;;;;;3.63;1.40;;;9.70;99.90;;;9.68;100.00;101257.13;5203422;28;20041;-52
2023/10/15 04:57:53;;;;;;;2.63;1.30;;;9.70;99.90;;;9.67;100.00;101253.63;5198263;28;20558;-50
2023/10/15 05:00:25;;;;;;;4.20;1.13;;;9.70;99.90;;;9.69;100.00;101248.50;5205525;28;20045;-55
2023/10/15 05:02:58;;;;;;;1.73;1.08;;;9.70;99.90;;;9.70;100.00;101255.47;5203844;28;20130;-53
2023/10/15 05:05:32;;;;;;;4.60;1.58;;;9.70;99.90;;;9.72;100.00;101259.06;5214794;28;20053;-51
2023/10/15 05:08:10;;;;;;;4.18;1.30;;;9.70;99.90;;;9.72;100.00;101248.66;5203749;28;20077;-52
2023/10/15 05:10:49;;;;;;;1.38;1.10;;;9.70;99.90;;;9.74;100.00;101255.69;5199861;28;20539;-52
2023/10/15 05:13:24;;;;;;;2.03;1.20;;;9.70;99.90;;;9.75;100.00;101248.78;5206270;28;20129;-54
2023/10/15 05:15:57;;;;;;;4.82;1.15;;;9.80;99.90;;;9.75;100.00;101249.66;5200907;28;20070;-50
2023/10/15 05:18:32;;;;;;;3.38;1.38;;;9.80;99.90;;;9.77;100.00;101244.50;5202261;28;20065;-52
2023/10/15 05:21:06;;;;;;;1.13;0.88;;;9.80;99.90;;;9.79;100.00;101248.09;5202831;28;20100;-51
2023/10/15 05:23:38;;;;;;;3.08;1.20;;;9.80;99.90;;;9.81;100.00;101238.63;5208632;28;20045;-52
2023/10/15 05:26:10;;;;;;;3.60;1.30;;;9.80;99.90;;;9.83;100.00;101236.09;5214263;28;20045;-53
2023/10/15 05:28:43;;;;;;;1.80;1.00;;;9.80;99.90;;;9.84;100.00;101230.06;5202230;28;20056;-51
2023/10/15 05:31:15;;;;;;;2.40;1.20;;;9.80;99.90;;;9.87;100.00;101236.31;5208733;28;20056;-52
2023/10/15 05:33:47;;;;;;;2.97;1.30;;;9.90;99.90;;;9.91;100.00;101229.50;5199531;28;20463;-52
2023/10/15 05:36:22;;;;;;;3.58;1.20;;;9.90;99.90;;;9.93;100.00;101236.59;5206724;28;20048;-51
2023/10/15 05:38:54;;;;;;;2.15;1.30;;;9.90;99.90;;;9.95;100.00;101240.13;5199579;28;20131;-51
2023/10/15 05:41:27;;;;;;;1.85;1.40;;;10.00;99.90;;;9.95;100.00;101242.75;5204600;28;20496;-51
2023/10/15 05:44:00;;;;;;;2.85;1.30;;;9.90;99.90;;;9.95;100.00;101245.34;5201611;28;20045;-55
2023/10/15 05:46:34;;;;;;;3.13;1.73;;;10.00;99.90;;;9.96;100.00;101252.31;5206095;28;20516;-51
2023/10/15 05:49:11;;;;;;;4.10;1.60;;;10.00;99.90;;;9.99;100.00;101257.69;5202208;28;20048;-51
2023/10/15 05:51:45;;;;;;;5.45;1.70;;;10.00;99.90;;;10.00;100.00;101251.66;5198688;28;20054;-52
2023/10/15 05:54:17;;;;;;;5.00;1.42;;;10.00;99.90;;;9.98;100.00;101255.91;5203134;28;20599;-55
2023/10/15 05:56:50;;;;;;;2.83;1.20;;;10.00;99.90;;;9.99;100.00;101255.09;5201908;28;20050;-54
2023/10/15 05:59:22;;;;;;;1.85;1.30;;;10.00;99.90;;;10.01;100.00;101262.97;5201618;28;20053;-52
2023/10/15 06:01:54;;;;;;;4.63;1.40;;;10.00;99.90;;;10.01;100.00;101270.78;5200920;28;20404;-51
2023/10/15 06:04:27;;;;;;;3.10;1.33;;;10.00;99.90;;;10.00;100.00;101277.69;5204857;28;20056;-52
2023/10/15 06:07:01;;;;;;;3.13;1.30;;;10.00;99.90;;;10.04;100.00;101282.22;5202361;28;20091;-51
2023/10/15 06:09:34;;;;;;;3.08;1.52;;;10.10;99.90;;;10.05;100.00;101276.19;5192847;28;20052;-49
2023/10/15 06:12:07;;;;;;;4.07;1.80;;;10.10;99.90;;;10.04;100.00;101273.50;5199917;28;20061;-55
2023/10/15 06:14:39;;;;;;;3.42;1.60;;;10.10;99.90;;;9.99;100.00;101270.72;5199190;28;20404;-50
2023/10/15 06:17:14;;;;;;;2.75;1.38;;;10.00;99.90;;;9.95;100.00;101273.09;5196415;28;20055;-50
2023/10/15 06:19:47;;;;;;;2.67;1.42;;;10.00;99.90;;;9.89;100.00;101276.31;5193504;28;20057;-54
2023/10/15 06:22:21;;;;;;;6.05;2.10;;;10.00;99.90;;;9.85;100.00;101282.22;5202873;28;20523;-50
2023/10/15 06:24:53;;;;;;;4.97;1.45;;;9.90;99.90;;;9.83;100.00;101288.16;5202262;28;20530;-51
2023/10/15 06:27:25;;;;;;;4.10;1.40;;;9.90;99.90;;;9.84;100.00;101288.22;5201615;28;20045;-51
2023/10/15 06:29:58;;;;;;;2.35;1.42;;;9.90;99.90;;;9.88;100.00;101297.97;5199021;28;20057;-51
2023/10/15 06:32:31;;;;;;;3.08;1.33;;;9.90;99.90;;;9.85;100.00;101292.66;5205181;28;20415;-50
2023/10/15 06:35:03;;;;;;;6.35;1.65;;;9.90;99.90;;;9.82;100.00;101309.81;5196774;28;20089;-53
2023/10/15 06:37:38;;;;;;;5.13;1.63;;;9.90;99.90;;;9.83;100.00;101314.22;5203111;28;20504;-50
2023/10/15 06:40:11;;;;;;;;;;;9.90;99.90;;;9.81;100.00;101316.75;5202402;28;20068;-50
2023/10/15 06:42:44;;;;;;;4.65;1.67;;;9.90;99.90;;;9.74;100.00;101314.69;5200809;28;19921;-52
2023/10/15 06:45:19;;;;;;;2.60;1.45;;;9.80;99.90;;;9.70;100.00;101321.44;5192719;28;20049;-54
2023/10/15 06:47:52;;;;;;;3.42;1.88;;;9.80;99.90;;;9.69;100.00;101326.59;5195372;28;20152;-52
2023/10/15 06:50:25;;;;;;;5.63;2.15;;;9.80;99.90;;;9.68;100.00;101330.91;5203866;28;20045;-53
2023/10/15 06:53:05;;;;;;;4.30;2.10;;;9.80;99.90;;;9.66;100.00;101323.84;5206988;28;20370;-51
2023/10/15 06:55:37;;;;;;;4.00;1.85;;;9.70;99.90;;;9.64;100.00;101325.47;5198846;28;20049;-50
2023/10/15 06:58:10;;;;;;;2.97;1.52;;;9.70;99.90;;;9.60;100.00;101326.16;5197075;28;20045;-50
2023/10/15 07:00:42;;;;;;;5.18;1.60;;;9.70;99.90;;;9.84;100.00;101327.28;5205458;28;20060;-51
2023/10/15 07:03:15;;;;;;;3.30;1.80;;;9.90;99.90;;;9.94;100.00;101334.72;5202657;28;20140;-51
2023/10/15 07:05:47;;;;;;;2.88;1.63;;;10.00;99.90;;;9.94;100.00;101334.72;5202507;28;20061;-53
2023/10/15 07:08:21;;;;;;;3.22;1.80;;;10.00;99.90;;;9.94;100.00;101344.25;5202161;28;20045;-52
2023/10/15 07:10:54;;;;;;;2.58;1.60;;;10.00;99.90;;;9.91;100.00;101337.19;5202080;28;20053;-54
2023/10/15 07:13:26;;;;;;;3.05;1.60;;;10.00;99.90;;;9.89;100.00;101328.41;5202005;28;20049;-53
2023/10/15 07:16:00;;;;;;;4.05;1.75;;;10.00;99.90;;;9.90;100.00;101324.97;5202123;28;20048;-50
2023/10/15 07:18:33;;;;;;;4.45;1.85;;;10.00;99.90;;;9.93;100.00;101332.94;5202368;28;20057;-49
2023/10/15 07:21:08;;;;;;;2.63;1.52;;;10.00;99.90;;;9.99;100.00;101325.41;5201601;28;20305;-53
2023/10/15 07:23:42;;;;;;;4.13;1.70;;;10.00;99.90;;;10.05;100.00;101327.41;5201821;28;20120;-52
2023/10/15 07:26:15;;;;;;;3.38;1.55;;;10.10;99.90;;;10.10;100.00;101330.19;5201748;28;20056;-52
2023/10/15 07:28:47;;;;;;;2.72;1.50;;;10.10;99.90;;;10.13;100.00;101330.34;5201872;28;20056;-53
2023/10/15 07:31:21;;;;;;;1.73;1.30;;;10.20;99.90;;;10.18;100.00;101344.47;5206429;28;20041;-52
2023/10/15 07:33:53;;;;;;;1.75;1.40;;;10.20;99.90;;;10.22;100.00;101342.06;5200953;28;20053;-52
2023/10/15 07:36:26;;;;;;;1.52;1.30;;;10.20;99.90;;;10.25;100.00;101336.16;5194949;28;20057;-53
2023/10/15 07:39:00;;;;;;;1.95;1.23;;;10.30;99.90;;;10.30;100.00;101342.44;5200210;28;20140;-50
2023/10/15 07:41:32;;;;;;;1.85;1.10;;;10.30;99.90;;;10.33;100.00;101345.19;5202234;28;20427;-50
2023/10/15 07:44:05;;;;;;;2.45;1.60;;;10.40;99.90;;;10.35;100.00;101353.97;5201942;28;20136;-49
2023/10/15 07:46:38;;;;;;;1.35;1.25;;;10.40;99.90;;;10.34;100.00;101360.00;5204021;28;20051;-50
2023/10/15 07:49:12;;;;;;;2.22;1.38;;;10.40;99.90;;;10.43;100.00;101362.09;5202490;28;20144;-49
2023/10/15 07:51:44;;;;;;;2.75;1.33;;;10.40;99.90;;;10.62;100.00;101361.19;5202236;28;20103;-50
2023/10/15 07:54:20;;;;;;;;;;;10.50;99.90;;;10.98;100.00;101365.41;5202637;28;20041;-49
2023/10/15 07:56:54;;;;;;;3.47;1.48;;;10.70;99.90;;;11.40;100.00;101367.97;5202247;28;19925;-50
2023/10/15 07:59:26;;;;;;;3.90;1.70;;;11.00;99.90;;;11.66;100.00;101369.03;5199830;28;20052;-50
2023/10/15 08:01:59;;;;;;;2.95;1.92;;;11.30;99.90;;;11.78;100.00;101379.06;5201534;28;20053;-49
2023/10/15 08:04:32;;;;;;;2.20;1.50;;;11.40;99.90;;;11.77;100.00;101375.56;5202156;28;20053;-49
2023/10/15 08:07:08;;;;;;;2.60;1.50;;;11.50;99.90;;;11.80;100.00;101374.78;5202097;28;20180;-50
2023/10/15 08:09:42;;;;;;;2.75;1.60;;;11.60;99.90;;;11.78;100.00;101381.69;5202210;28;20148;-50
2023/10/15 08:12:14;;;;;;;2.30;1.30;;;11.60;99.90;;;11.72;100.00;101379.72;5202154;28;20045;-50
2023/10/15 08:14:47;;;;;;;2.38;1.55;;;11.60;99.90;;;11.66;100.00;101382.97;5201886;28;20046;-52
2023/10/15 08:17:19;;;;;;;2.85;1.70;;;11.50;99.90;;;11.61;100.00;101392.38;5202459;28;20045;-49
2023/10/15 08:19:52;;;;;;;2.47;1.40;;;11.50;99.90;;;11.50;100.00;101387.53;5201847;28;20056;-49
2023/10/15 08:22:25;;;;;;;1.90;1.10;;;11.40;99.90;;;11.41;100.00;101396.78;5201964;28;20393;-50
2023/10/15 08:24:59;;;;;;;1.92;1.50;;;11.40;99.90;;;11.35;100.00;101400.88;5201836;28;20064;-53
2023/10/15 08:27:33;;;;;;;2.13;1.50;;;11.30;99.90;;;11.25;100.00;101404.78;5201794;28;20045;-53
2023/10/15 08:30:08;;;;;;;2.22;1.67;;;11.20;99.90;;;11.18;100.00;101409.69;5202075;28;20152;-52
2023/10/15 08:32:40;;;;;;;3.92;1.80;;;11.20;99.90;;;11.07;100.00;101406.63;5201742;28;20508;-51
2023/10/15 08:35:14;;;;;;;3.17;2.08;;;11.10;99.90;;;10.95;100.00;101409.59;5201880;28;20064;-51
2023/10/15 08:37:47;;;;;;;3.60;1.77;;;10.90;99.90;;;10.83;100.00;101411.72;5201999;28;20179;-49
2023/10/15 08:40:20;;;;;;;4.53;2.10;;;10.90;99.90;;;10.80;100.00;101417.66;5201865;28;20050;-52
2023/10/15 08:43:06;;;;;;;3.03;2.10;;;10.80;99.90;;;10.77;100.00;101419.25;5201799;28;20064;-51
2023/10/15 08:45:42;;;;;;;3.40;2.08;;;10.80;99.90;;;10.76;100.00;101425.31;5201700;28;20046;-51
2023/10/15 08:48:17;;;;;;;3.63;1.80;;;10.70;99.90;;;10.74;100.00;101426.94;5201763;28;20370;-50
2023/10/15 08:50:50;;;;;;;2.75;1.83;;;10.70;99.90;;;10.73;100.00;101435.59;5201857;28;20049;-50
2023/10/15 08:53:28;;;;;;;3.53;2.13;;;10.70;99.90;;;10.75;100.00;101436.53;5201588;28;20061;-51
2023/10/15 08:56:03;;;;;;;2.72;2.00;;;10.70;99.90;;;10.80;100.00;101437.63;5201739;28;20053;-51
2023/10/15 08:58:36;;;;;;;2.60;1.90;;;10.80;99.90;;;10.77;100.00;101442.72;5201677;28;20050;-50
2023/10/15 09:01:13;;;;;;;2.78;1.60;;;10.70;99.90;;;10.75;100.00;101446.97;5201599;28;20050;-50
2023/10/15 09:03:46;;;;;;;3.38;1.70;;;10.70;99.90;;;10.76;100.00;101438.34;5201562;28;20046;-52
2023/10/15 09:06:18;;;;;;;3.92;2.38;;;10.70;99.90;;;10.79;100.00;101446.28;5201894;28;20049;-50
2023/10/15 09:08:52;;;;;;;3.35;1.73;;;10.80;99.90;;;10.78;100.00;101440.19;5201573;28;20053;-50
2023/10/15 09:11:27;;;;;;;2.35;1.60;;;10.80;99.90;;;10.84;100.00;101440.44;5201452;28;20062;-50
2023/10/15 09:14:00;;;;;;;2.42;1.67;;;10.80;99.90;;;10.93;100.00;101450.38;5204085;28;20472;-51
2023/10/15 09:16:32;;;;;;;3.25;1.52;;;10.90;99.90;;;11.34;100.00;101451.25;5202287;28;20389;-50
2023/10/15 09:19:07;;;;;;;4.50;1.70;;;11.30;99.90;;;11.47;100.00;101453.56;5184899;28;20061;-50
2023/10/15 09:21:39;;;;;;;4.15;1.90;;;11.40;99.90;;;11.51;100.00;101458.09;5184710;28;20086;-50
2023/10/15 09:24:14;;;;;;;1.73;1.58;;;11.50;99.90;;;11.44;100.00;101461.28;5184266;28;20062;-50
2023/10/15 09:26:50;;;;;;;2.28;1.70;;;11.40;99.90;;;11.32;100.00;101460.75;5184704;28;20612;-50
2023/10/15 09:29:23;;;;;;;2.33;1.77;;;11.30;99.90;;;11.25;100.00;101464.81;5185015;28;20058;-50
2023/10/15 09:32:01;;;;;;;3.97;1.90;;;11.20;99.90;;;11.21;100.00;101472.44;5184587;28;20060;-50
2023/10/15 09:34:37;;;;;;;2.70;2.20;;;11.20;99.90;;;11.17;100.00;101478.38;5197761;28;20053;-49
2023/10/15 09:37:09;;;;;;;3.80;2.05;;;11.20;99.90;;;11.16;100.00;101480.09;5204906;28;20111;-50
2023/10/15 09:39:43;;;;;;;4.50;1.98;;;11.20;99.90;;;11.21;100.00;101475.06;5205045;28;20512;-50
2023/10/15 09:42:18;;;;;;;3.95;1.65;;;11.20;99.90;;;11.19;100.00;101480.22;5204903;28;20130;-50
2023/10/15 09:44:51;;;;;;;2.95;1.63;;;11.10;99.90;;;11.20;100.00;101486.31;5204769;28;20130;-50
2023/10/15 09:47:26;;;;;;;1.80;1.70;;;11.10;99.90;;;11.25;100.00;101479.59;5204599;28;20049;-49
2023/10/15 09:50:01;;;;;;;4.97;1.77;;;11.20;99.90;;;11.28;100.00;101493.69;5204693;28;20046;-50
2023/10/15 09:52:35;;;;;;;3.50;1.50;;;11.20;99.90;;;11.20;100.00;101486.31;5204741;28;20049;-50
2023/10/15 09:55:11;;;;;;;2.33;1.60;;;11.20;99.90;;;11.49;100.00;101483.25;5204122;28;20061;-50
2023/10/15 09:57:45;;;;;;;1.73;1.40;;;11.40;99.90;;;11.56;100.00;101482.69;5204508;28;20069;-50
2023/10/15 10:00:32;;;;;;;2.95;1.40;;;11.50;99.90;;;11.64;100.00;101494.31;5204617;28;20504;-50
2023/10/15 10:03:39;;;;;;;2.92;1.40;;;11.50;99.90;;;11.99;100.00;101500.13;5169264;28;20061;-51
2023/10/15 10:06:33;;;;;;;2.47;1.30;;;11.80;99.90;;;12.19;100.00;101494.00;5141675;28;20049;-50
2023/10/15 10:09:36;;;;;;;3.60;1.45;;;12.00;99.90;;;12.18;100.00;101497.41;5183954;28;20046;-50
2023/10/15 10:12:28;;;;;;;2.20;1.08;;;12.00;99.90;;;12.08;100.00;101505.72;5183862;28;20136;-50
2023/10/15 10:15:28;;;;;;;1.25;1.10;;;12.00;99.90;;;11.96;100.00;101505.25;5183876;28;20057;-49
2023/10/15 10:18:01;;;;;;;1.20;1.00;;;11.90;99.90;;;11.90;100.00;101507.59;5183846;28;20580;-50
2023/10/15 10:20:37;;;;;;;1.27;1.17;;;11.80;99.90;;;11.84;100.00;101520.41;5183618;28;20054;-51
2023/10/15 10:23:11;;;;;;;1.38;1.10;;;11.70;99.90;;;11.81;100.00;101517.69;5183320;28;20057;-50
2023/10/15 10:25:45;;;;;;;2.63;0.98;;;11.70;99.90;;;11.88;100.00;101522.34;5182899;28;20144;-51
2023/10/15 10:28:19;;;;;;;1.27;0.98;;;11.80;99.90;;;12.02;100.00;101517.66;5183732;28;20142;-49
2023/10/15 10:30:55;;;;;;;3.72;1.00;;;11.80;99.90;;;12.03;100.00;101520.34;5183336;28;20081;-47
2023/10/15 10:33:54;;;;;;;1.30;1.10;;;11.90;99.90;;;12.01;100.00;101514.16;5195012;28;20795;-48
2023/10/15 10:36:32;;;;;;;1.25;1.00;;;11.90;99.90;;;12.06;100.00;101517.84;5200172;28;20049;-48
2023/10/15 10:39:14;;;;;;;3.22;1.20;;;12.00;99.90;;;12.11;100.00;101521.53;5203581;28;20076;-48
2023/10/15 10:41:50;;;;;;;2.55;1.10;;;12.00;99.90;;;12.01;100.00;101519.38;5203362;28;20053;-47
2023/10/15 10:44:38;;;;;;;1.85;1.08;;;11.90;99.90;;;11.97;100.00;101522.69;5203437;28;20985;-48
2023/10/15 10:47:22;;;;;;;1.55;1.23;;;11.90;99.90;;;11.98;100.00;101526.19;5200407;28;20045;-47